SUT8644 CYZF-CYRT
Flight info
| Callsign | SUT8644 |
|---|---|
| Flight time | N/A |
| Altitude | 33000 |
| Route | 63N104W |
| Aircraft | RJ1H/M-SDFGIRWY/LB1 |
Departure
| Time | 2026-05-07 20:36 |
|---|---|
| Airport | Yellowknife International Airport (CYZF) |
Arrival
| Time | N/A |
|---|---|
| Airport | Rankin Inlet Airport (CYRT) |
| Time | Latitude | Longitude | Altitude | Speed | Heading |
|---|---|---|---|---|---|
| 2026-05-07 20:07 | 62.47155 | -114.43877 | 684 ft | 0 kts | 85° |
| 2026-05-07 20:25 | 62.47155 | -114.43878 | 675 ft | 2 kts | 85° |
| 2026-05-07 20:25 | 62.47153 | -114.43917 | 680 ft | 3 kts | 85° |
| 2026-05-07 20:25 | 62.47152 | -114.43957 | 679 ft | 3 kts | 88° |
| 2026-05-07 20:25 | 62.47157 | -114.43995 | 681 ft | 3 kts | 135° |
| 2026-05-07 20:26 | 62.47173 | -114.44014 | 680 ft | 3 kts | 165° |
| 2026-05-07 20:26 | 62.47182 | -114.44019 | 681 ft | 0 kts | 169° |
| 2026-05-07 20:31 | 62.47181 | -114.44018 | 681 ft | 0 kts | 169° |
| 2026-05-07 20:31 | 62.47175 | -114.44008 | 679 ft | 1 kts | 106° |
| 2026-05-07 20:32 | 62.47189 | -114.44002 | 680 ft | 5 kts | 337° |
| 2026-05-07 20:32 | 62.47236 | -114.44033 | 681 ft | 9 kts | 348° |
| 2026-05-07 20:32 | 62.47290 | -114.44056 | 681 ft | 7 kts | 342° |
| 2026-05-07 20:32 | 62.47305 | -114.44083 | 681 ft | 0 kts | 309° |
| 2026-05-07 20:33 | 62.47309 | -114.44096 | 682 ft | 2 kts | 302° |
| 2026-05-07 20:34 | 62.47317 | -114.44131 | 683 ft | 3 kts | 290° |
| 2026-05-07 20:34 | 62.47321 | -114.44195 | 685 ft | 5 kts | 268° |
| 2026-05-07 20:34 | 62.47319 | -114.44283 | 685 ft | 7 kts | 268° |
| 2026-05-07 20:34 | 62.47317 | -114.44366 | 684 ft | 4 kts | 237° |
| 2026-05-07 20:35 | 62.47294 | -114.44391 | 684 ft | 4 kts | 183° |
| 2026-05-07 20:35 | 62.47288 | -114.44390 | 686 ft | 0 kts | 175° |
| 2026-05-07 20:35 | 62.47235 | -114.44382 | 682 ft | 33 kts | 176° |
| 2026-05-07 20:35 | 62.46779 | -114.44313 | 682 ft | 96 kts | 176° |
| 2026-05-07 20:36 | 62.45925 | -114.44175 | 698 ft | 146 kts | 175° |
| 2026-05-07 20:36 | 62.44895 | -114.44004 | 1164 ft | 152 kts | 172° |
| 2026-05-07 20:36 | 62.43804 | -114.43800 | 1712 ft | 163 kts | 174° |
| 2026-05-07 20:36 | 62.42603 | -114.43591 | 2109 ft | 183 kts | 174° |
| 2026-05-07 20:37 | 62.41257 | -114.43411 | 2508 ft | 199 kts | 175° |
| 2026-05-07 20:37 | 62.39872 | -114.43260 | 3336 ft | 199 kts | 173° |
| 2026-05-07 20:37 | 62.38561 | -114.42173 | 3731 ft | 220 kts | 134° |
| 2026-05-07 20:37 | 62.37873 | -114.39216 | 4394 ft | 229 kts | 94° |
| 2026-05-07 20:38 | 62.38195 | -114.35851 | 5292 ft | 236 kts | 57° |
| 2026-05-07 20:38 | 62.39270 | -114.33175 | 6176 ft | 244 kts | 44° |
| 2026-05-07 20:38 | 62.40508 | -114.30504 | 7005 ft | 253 kts | 43° |
| 2026-05-07 20:38 | 62.41796 | -114.27834 | 7788 ft | 261 kts | 42° |
| 2026-05-07 20:39 | 62.43127 | -114.25165 | 8597 ft | 269 kts | 41° |
| 2026-05-07 20:39 | 62.44516 | -114.22427 | 9444 ft | 273 kts | 41° |
| 2026-05-07 20:39 | 62.45937 | -114.19652 | 10068 ft | 277 kts | 41° |
| 2026-05-07 20:39 | 62.47377 | -114.16844 | 10609 ft | 280 kts | 40° |
| 2026-05-07 20:40 | 62.48832 | -114.14012 | 11171 ft | 282 kts | 41° |
| 2026-05-07 20:40 | 62.50129 | -114.10708 | 11420 ft | 299 kts | 63° |
| 2026-05-07 20:40 | 62.50593 | -114.06244 | 11678 ft | 312 kts | 85° |
| 2026-05-07 20:40 | 62.50713 | -114.01440 | 11837 ft | 326 kts | 85° |
| 2026-05-07 20:41 | 62.50888 | -113.96486 | 12090 ft | 333 kts | 83° |
| 2026-05-07 20:41 | 62.51127 | -113.91474 | 12480 ft | 336 kts | 82° |
| 2026-05-07 20:41 | 62.51442 | -113.86440 | 12873 ft | 338 kts | 80° |
| 2026-05-07 20:41 | 62.51814 | -113.81393 | 13273 ft | 340 kts | 79° |
| 2026-05-07 20:42 | 62.52228 | -113.76331 | 13653 ft | 343 kts | 78° |
| 2026-05-07 20:42 | 62.52664 | -113.71311 | 14004 ft | 345 kts | 78° |
| 2026-05-07 20:42 | 62.53113 | -113.66135 | 14359 ft | 346 kts | 78° |
| 2026-05-07 20:42 | 62.53542 | -113.61066 | 14715 ft | 347 kts | 78° |
| 2026-05-07 20:43 | 62.53982 | -113.55905 | 15103 ft | 349 kts | 78° |
| 2026-05-07 20:43 | 62.54426 | -113.50713 | 15456 ft | 351 kts | 78° |
| 2026-05-07 20:43 | 62.54865 | -113.45494 | 15816 ft | 353 kts | 79° |
| 2026-05-07 20:43 | 62.55289 | -113.40256 | 16176 ft | 354 kts | 79° |
| 2026-05-07 20:44 | 62.55713 | -113.34970 | 16533 ft | 356 kts | 79° |
| 2026-05-07 20:44 | 62.56137 | -113.29672 | 16899 ft | 358 kts | 79° |
| 2026-05-07 20:44 | 62.56565 | -113.24337 | 17259 ft | 359 kts | 79° |
| 2026-05-07 20:44 | 62.56991 | -113.19046 | 17617 ft | 362 kts | 79° |
| 2026-05-07 20:45 | 62.57426 | -113.13661 | 17973 ft | 364 kts | 79° |
| 2026-05-07 20:45 | 62.57865 | -113.08240 | 18335 ft | 366 kts | 79° |
| 2026-05-07 20:45 | 62.58309 | -113.02788 | 18638 ft | 368 kts | 79° |
| 2026-05-07 20:45 | 62.58759 | -112.97306 | 18957 ft | 369 kts | 79° |
| 2026-05-07 20:46 | 62.59192 | -112.91796 | 19254 ft | 371 kts | 80° |
| 2026-05-07 20:46 | 62.59619 | -112.86248 | 19553 ft | 373 kts | 80° |
| 2026-05-07 20:46 | 62.60049 | -112.80670 | 19846 ft | 375 kts | 80° |
| 2026-05-07 20:46 | 62.60480 | -112.75063 | 20139 ft | 377 kts | 80° |
| 2026-05-07 20:47 | 62.60922 | -112.69430 | 20421 ft | 379 kts | 80° |
| 2026-05-07 20:47 | 62.61365 | -112.63763 | 20725 ft | 381 kts | 81° |
| 2026-05-07 20:47 | 62.61795 | -112.58079 | 21025 ft | 382 kts | 81° |
| 2026-05-07 20:47 | 62.62227 | -112.52366 | 21304 ft | 384 kts | 81° |
| 2026-05-07 20:48 | 62.62663 | -112.46600 | 21585 ft | 386 kts | 81° |
| 2026-05-07 20:48 | 62.63098 | -112.40914 | 21866 ft | 388 kts | 81° |
| 2026-05-07 20:48 | 62.63533 | -112.35125 | 22138 ft | 389 kts | 81° |
| 2026-05-07 20:48 | 62.63950 | -112.29298 | 22417 ft | 391 kts | 81° |
| 2026-05-07 20:49 | 62.64368 | -112.23444 | 22647 ft | 393 kts | 82° |
| 2026-05-07 20:49 | 62.64788 | -112.17545 | 22908 ft | 395 kts | 82° |
| 2026-05-07 20:49 | 62.65207 | -112.11639 | 23148 ft | 396 kts | 82° |
| 2026-05-07 20:49 | 62.65632 | -112.05695 | 23393 ft | 398 kts | 81° |
| 2026-05-07 20:50 | 62.66058 | -111.99727 | 23627 ft | 399 kts | 81° |
| 2026-05-07 20:50 | 62.66487 | -111.93751 | 23827 ft | 401 kts | 81° |
| 2026-05-07 20:50 | 62.66774 | -111.89750 | 23952 ft | 402 kts | 81° |
| 2026-05-07 20:50 | 62.67204 | -111.83740 | 24149 ft | 403 kts | 81° |
| 2026-05-07 20:51 | 62.67640 | -111.77707 | 24353 ft | 404 kts | 81° |
| 2026-05-07 20:51 | 62.68077 | -111.71655 | 24558 ft | 405 kts | 81° |
| 2026-05-07 20:51 | 62.68511 | -111.65611 | 24879 ft | 402 kts | 82° |
| 2026-05-07 20:51 | 62.68916 | -111.59604 | 25165 ft | 400 kts | 82° |
| 2026-05-07 20:52 | 62.69313 | -111.53623 | 25427 ft | 399 kts | 82° |
| 2026-05-07 20:52 | 62.69704 | -111.47721 | 25668 ft | 398 kts | 82° |
| 2026-05-07 20:52 | 62.70100 | -111.41735 | 25929 ft | 397 kts | 82° |
| 2026-05-07 20:52 | 62.70497 | -111.35792 | 26183 ft | 396 kts | 82° |
| 2026-05-07 20:53 | 62.70894 | -111.29859 | 26430 ft | 396 kts | 82° |
| 2026-05-07 20:53 | 62.71297 | -111.23916 | 26658 ft | 395 kts | 82° |
| 2026-05-07 20:53 | 62.71697 | -111.17999 | 26921 ft | 394 kts | 82° |
| 2026-05-07 20:53 | 62.72099 | -111.12105 | 27147 ft | 393 kts | 82° |
| 2026-05-07 20:54 | 62.72477 | -111.06209 | 27367 ft | 393 kts | 83° |
| 2026-05-07 20:54 | 62.72853 | -111.00311 | 27586 ft | 392 kts | 83° |
| 2026-05-07 20:54 | 62.73224 | -110.94418 | 27827 ft | 391 kts | 83° |
| 2026-05-07 20:54 | 62.73593 | -110.88622 | 28050 ft | 390 kts | 83° |
| 2026-05-07 20:55 | 62.73964 | -110.82766 | 28275 ft | 389 kts | 83° |
| 2026-05-07 20:55 | 62.74341 | -110.76916 | 28494 ft | 389 kts | 83° |
| 2026-05-07 20:55 | 62.74713 | -110.71068 | 28695 ft | 388 kts | 83° |
| 2026-05-07 20:55 | 62.75070 | -110.65235 | 28894 ft | 388 kts | 83° |
| 2026-05-07 20:56 | 62.75412 | -110.59384 | 29001 ft | 385 kts | 83° |
| 2026-05-07 20:56 | 62.76110 | -110.47995 | 29034 ft | 380 kts | 83° |
| 2026-05-07 20:57 | 62.76800 | -110.36530 | 29040 ft | 381 kts | 82° |
| 2026-05-07 20:57 | 62.77471 | -110.25015 | 29044 ft | 384 kts | 83° |
| 2026-05-07 20:58 | 62.78163 | -110.13297 | 29049 ft | 393 kts | 83° |
| 2026-05-07 20:58 | 62.78839 | -110.01323 | 29061 ft | 400 kts | 82° |
| 2026-05-07 20:59 | 62.79535 | -109.89279 | 29060 ft | 404 kts | 83° |
| 2026-05-07 20:59 | 62.80210 | -109.77063 | 29055 ft | 404 kts | 82° |
| 2026-05-07 21:00 | 62.80878 | -109.64845 | 29048 ft | 405 kts | 82° |
| 2026-05-07 21:00 | 62.81541 | -109.52589 | 29050 ft | 406 kts | 82° |
| 2026-05-07 21:01 | 62.82179 | -109.40320 | 29052 ft | 406 kts | 82° |
| 2026-05-07 21:01 | 62.82909 | -109.28157 | 29056 ft | 405 kts | 80° |
| 2026-05-07 21:02 | 62.83708 | -109.15939 | 29055 ft | 406 kts | 81° |
| 2026-05-07 21:02 | 62.84470 | -109.03686 | 29070 ft | 407 kts | 81° |
| 2026-05-07 21:03 | 62.85175 | -108.91370 | 29078 ft | 407 kts | 81° |
| 2026-05-07 21:03 | 62.85908 | -108.79062 | 29064 ft | 407 kts | 81° |
| 2026-05-07 21:04 | 62.86598 | -108.66759 | 29067 ft | 407 kts | 81° |
| 2026-05-07 21:04 | 62.87302 | -108.54540 | 29084 ft | 407 kts | 81° |
| 2026-05-07 21:05 | 62.87979 | -108.42120 | 29097 ft | 408 kts | 81° |
| 2026-05-07 21:05 | 62.88642 | -108.29859 | 29086 ft | 407 kts | 81° |
| 2026-05-07 21:06 | 62.89310 | -108.17502 | 29082 ft | 407 kts | 81° |
| 2026-05-07 21:06 | 62.89982 | -108.05163 | 29079 ft | 407 kts | 81° |
| 2026-05-07 21:07 | 62.90648 | -107.92823 | 29074 ft | 407 kts | 81° |
| 2026-05-07 21:07 | 62.91249 | -107.80537 | 29086 ft | 407 kts | 81° |
| 2026-05-07 21:08 | 62.91886 | -107.68155 | 29082 ft | 407 kts | 81° |
| 2026-05-07 21:08 | 62.92479 | -107.55867 | 29085 ft | 407 kts | 81° |
| 2026-05-07 21:09 | 62.93075 | -107.43508 | 29089 ft | 407 kts | 81° |